| time (UTC) | temp F | wind direction | speed MPH | gust MPH | rain 1hr in | rain 24hr in | rain mn in | humidity % | barometer mb |
| 20260504050005 | 57 | 71 | 0.0 | 0.0 | 0.00 | 0.00 | 0.00 | 69 | 1017.3 |
| 20260504044509 | 57 | 71 | 0.0 | 0.0 | 0.00 | 0.00 | 0.00 | 68 | 1017.3 |
| 20260504043006 | 58 | 71 | 0.0 | 0.0 | 0.00 | 0.00 | 0.00 | 68 | 1017.3 |
| 20260504041503 | 58 | 71 | 0.0 | 1.0 | 0.00 | 0.00 | 0.00 | 68 | 1017.1 |
| 20260504040003 | 59 | 82 | 0.0 | 3.0 | 0.00 | 0.00 | 0.00 | 69 | 1017.2 |
| 20260504034503 | 59 | 88 | 0.0 | 0.0 | 0.00 | 0.00 | 0.00 | 68 | 1017.0 |
| 20260504033002 | 60 | 88 | 0.0 | 0.0 | 0.00 | 0.00 | 0.00 | 66 | 1017.2 |
| 20260504031501 | 61 | 88 | 0.0 | 2.0 | 0.00 | 0.00 | 0.00 | 66 | 1017.2 |
| 20260504030001 | 61 | 205 | 0.0 | 0.0 | 0.00 | 0.00 | 0.00 | 65 | 1017.2 |
| 20260504024605 | 62 | 237 | 0.0 | 0.0 | 0.00 | 0.00 | 0.00 | 62 | 1017.2 |
| 20260504023100 | 62 | 237 | 0.0 | 0.0 | 0.00 | 0.00 | 0.00 | 60 | 1017.1 |
| 20260504021600 | 63 | 237 | 0.0 | 0.0 | 0.00 | 0.00 | 0.00 | 59 | 1016.8 |
| 20260504020112 | 64 | 237 | 0.0 | 0.0 | 0.00 | 0.00 | 0.00 | 56 | 1016.8 |
| 20260504014558 | 65 | 237 | 0.0 | 1.0 | 0.00 | 0.00 | 0.00 | 53 | 1016.6 |
| 20260504013058 | 66 | 237 | 0.0 | 0.0 | 0.00 | 0.00 | 0.00 | 51 | 1016.4 |
| 20260504011556 | 67 | 237 | 0.0 | 0.0 | 0.00 | 0.00 | 0.00 | 48 | 1016.2 |
| 20260504010057 | 68 | 237 | 0.0 | 1.0 | 0.00 | 0.00 | 0.00 | 46 | 1016.1 |
| 20260504004556 | 69 | 240 | 0.0 | 4.0 | 0.00 | 0.00 | 0.00 | 46 | 1016.0 |
| 20260504003056 | 69 | 242 | 2.0 | 5.0 | 0.00 | 0.00 | 0.00 | 43 | 1015.9 |
| 20260504001556 | 71 | 241 | 4.0 | 8.0 | 0.00 | 0.00 | 0.00 | 42 | 1015.7 |
| 20260504000054 | 72 | 254 | 3.0 | 8.0 | 0.00 | 0.00 | 0.00 | 40 | 1015.6 |
| 20260503234623 | 73 | 269 | 4.0 | 13.0 | 0.00 | 0.00 | 0.00 | 38 | 1015.7 |
| 20260503233153 | 74 | 256 | 5.0 | 12.0 | 0.00 | 0.00 | 0.00 | 37 | 1015.6 |
| 20260503231552 | 76 | 290 | 5.0 | 10.0 | 0.00 | 0.00 | 0.00 | 23 | 1015.5 |
| 20260503230055 | 77 | 279 | 4.0 | 9.0 | 0.00 | 0.00 | 0.00 | 21 | 1015.5 |
| 20260503224551 | 78 | 280 | 2.0 | 5.0 | 0.00 | 0.00 | 0.00 | 22 | 1015.4 |
| 20260503223051 | 78 | 327 | 2.0 | 9.0 | 0.00 | 0.00 | 0.00 | 21 | 1015.4 |
| 20260503221557 | 78 | 298 | 2.0 | 6.0 | 0.00 | 0.00 | 0.00 | 20 | 1015.4 |
| 20260503220047 | 78 | 323 | 2.0 | 9.0 | 0.00 | 0.00 | 0.00 | 21 | 1015.6 |
| 20260503214545 | 78 | 43 | 1.0 | 9.0 | 0.00 | 0.00 | 0.00 | 19 | 1015.7 |
| 20260503213044 | 79 | 111 | 1.0 | 8.0 | 0.00 | 0.00 | 0.00 | 20 | 1015.8 |
| 20260503211541 | 79 | 5 | 1.0 | 6.0 | 0.00 | 0.00 | 0.00 | 19 | 1016.0 |
| 20260503210041 | 78 | 12 | 2.0 | 8.0 | 0.00 | 0.00 | 0.00 | 18 | 1016.0 |
| 20260503204543 | 78 | 77 | 2.0 | 15.0 | 0.00 | 0.00 | 0.00 | 20 | 1016.1 |
| 20260503203052 | 78 | 300 | 2.0 | 8.0 | 0.00 | 0.00 | 0.00 | 19 | 1016.4 |
| 20260503201536 | 78 | 49 | 2.0 | 7.0 | 0.00 | 0.00 | 0.00 | 19 | 1016.5 |
| 20260503200034 | 78 | 351 | 3.0 | 11.0 | 0.00 | 0.00 | 0.00 | 19 | 1016.8 |
| 20260503194533 | 78 | 360 | 1.0 | 10.0 | 0.00 | 0.00 | 0.00 | 21 | 1017.1 |
| 20260503193032 | 78 | 75 | 2.0 | 9.0 | 0.00 | 0.00 | 0.00 | 20 | 1017.4 |
| 20260503191534 | 78 | 234 | 2.0 | 10.0 | 0.00 | 0.00 | 0.00 | 19 | 1017.7 |
| 20260503190028 | 78 | 81 | 2.0 | 8.0 | 0.00 | 0.00 | 0.00 | 19 | 1018.0 |
| 20260503184526 | 78 | 177 | 2.0 | 16.0 | 0.00 | 0.00 | 0.00 | 17 | 1018.1 |
| 20260503183025 | 78 | 262 | 1.0 | 6.0 | 0.00 | 0.00 | 0.00 | 15 | 1018.4 |
| 20260503181521 | 78 | 102 | 2.0 | 5.0 | 0.00 | 0.00 | 0.00 | 18 | 1018.5 |
| 20260503180020 | 77 | 60 | 3.0 | 10.0 | 0.00 | 0.00 | 0.00 | 19 | 1018.5 |
| 20260503174518 | 77 | 350 | 4.0 | 13.0 | 0.00 | 0.00 | 0.00 | 20 | 1018.6 |
| 20260503173015 | 76 | 360 | 2.0 | 8.0 | 0.00 | 0.00 | 0.00 | 25 | 1018.7 |
| 20260503171512 | 76 | 70 | 2.0 | 6.0 | 0.00 | 0.00 | 0.00 | 23 | 1018.9 |
| 20260503110108 | 47 | 5 | 0.0 | 0.0 | 0.00 | 0.14 | 0.00 | 75 | 1018.5 |
| 20260503081535 | 50 | 5 | 0.0 | 0.0 | 0.00 | 0.63 | 0.00 | 73 | 1017.5 |
| 20260503071524 | 51 | 10 | 0.0 | 0.0 | 0.00 | 0.73 | 0.00 | 72 | 1017.3 |